Time;durP1;ratioP1;P1;durP2;ratioP2;P2;SDS_P1;SDS_P2;PMS_P1;PMS_P2;Temp;Humidity;BMP_temperature;BMP_pressure;BME280_temperature;BME280_humidity;BME280_pressure;Samples;Min_cycle;Max_cycle;Signal;HPM_P1;HPM_P2
2023/06/21 00:00:24;;;;;;;6.10;2.53;;;26.40;60.20;;;;;;4930719;29;20478;-85
2023/06/21 00:02:51;;;;;;;4.33;2.50;;;26.30;59.70;;;;;;4924168;29;20458;-86
2023/06/21 00:05:18;;;;;;;2.80;2.50;;;26.30;59.90;;;;;;4928261;29;20442;-87
2023/06/21 00:07:47;;;;;;;13.03;2.97;;;26.30;60.00;;;;;;4934310;29;20455;-86
2023/06/21 00:10:14;;;;;;;2.60;2.27;;;26.30;59.80;;;;;;4903114;29;21310;-87
2023/06/21 00:12:43;;;;;;;4.90;3.60;;;26.30;60.10;;;;;;4922289;29;20825;-86
2023/06/21 00:15:10;;;;;;;3.50;2.40;;;26.30;59.70;;;;;;4914035;29;20554;-88
2023/06/21 00:17:37;;;;;;;4.10;2.73;;;26.30;60.20;;;;;;4925801;29;20447;-86
2023/06/21 00:20:08;;;;;;;5.60;3.23;;;26.20;60.20;;;;;;4914262;29;20483;-90
2023/06/21 00:22:36;;;;;;;12.60;5.00;;;26.20;60.50;;;;;;4933875;29;20458;-87
2023/06/21 00:25:03;;;;;;;7.63;5.00;;;26.20;60.10;;;;;;4938418;29;20454;-85
2023/06/21 00:27:30;;;;;;;6.30;4.80;;;26.20;60.70;;;;;;4944955;29;20462;-85
2023/06/21 00:29:58;;;;;;;10.27;4.50;;;26.20;61.30;;;;;;4913952;29;20470;-86
2023/06/21 00:32:25;;;;;;;7.77;5.10;;;26.20;61.70;;;;;;4929874;29;20455;-87
2023/06/21 00:34:52;;;;;;;15.30;6.30;;;26.10;61.30;;;;;;4914724;29;20545;-86
2023/06/21 00:37:19;;;;;;;10.13;6.33;;;26.10;61.90;;;;;;4927293;29;20524;-85
2023/06/21 00:39:46;;;;;;;6.33;5.13;;;26.10;62.00;;;;;;4911351;29;20874;-87
2023/06/21 00:42:13;;;;;;;6.73;5.37;;;26.00;62.10;;;;;;4905500;29;20469;-85
2023/06/21 00:44:40;;;;;;;6.90;5.13;;;26.10;62.10;;;;;;4937954;29;20978;-86
2023/06/21 00:47:08;;;;;;;8.20;3.77;;;26.00;61.80;;;;;;4908344;29;20450;-91
2023/06/21 00:49:35;;;;;;;11.93;3.37;;;26.00;61.00;;;;;;4947664;28;20530;-86
2023/06/21 00:52:05;;;;;;;6.70;3.33;;;26.00;61.50;;;;;;4939886;28;20585;-86
2023/06/21 00:54:35;;;;;;;5.30;3.80;;;26.00;61.20;;;;;;4937496;29;20465;-85
2023/06/21 00:57:03;;;;;;;9.83;4.07;;;26.00;60.80;;;;;;4932941;29;20446;-86
2023/06/21 00:59:30;;;;;;;6.70;3.77;;;26.00;60.80;;;;;;4929454;29;20477;-85
2023/06/21 01:01:58;;;;;;;4.37;3.17;;;25.90;61.30;;;;;;4908048;29;20458;-86
2023/06/21 01:04:29;;;;;;;7.13;4.20;;;25.60;61.40;;;;;;4941797;28;20455;-86
2023/06/21 01:07:05;;;;;;;9.97;5.90;;;25.60;62.20;;;;;;4919691;29;21154;-86
2023/06/21 01:09:44;;;;;;;9.10;5.57;;;25.70;62.30;;;;;;4936190;29;20486;-86
2023/06/21 01:12:21;;;;;;;6.10;3.57;;;25.70;62.70;;;;;;4940558;29;20465;-86
2023/06/21 01:14:55;;;;;;;14.63;6.60;;;25.80;62.50;;;;;;4917101;29;20458;-87
2023/06/21 01:17:24;;;;;;;10.03;5.77;;;25.70;62.10;;;;;;4928099;29;20540;-86
2023/06/21 01:19:56;;;;;;;10.20;6.17;;;25.80;62.10;;;;;;4911923;29;20477;-85
2023/06/21 01:22:37;;;;;;;6.50;5.17;;;25.80;62.40;;;;;;4925233;29;20459;-85
2023/06/21 01:25:18;;;;;;;43.10;8.70;;;25.80;62.10;;;;;;4911445;29;20462;-85
2023/06/21 01:28:03;;;;;;;8.47;6.60;;;25.80;62.30;;;;;;5114484;27;20912;-87
2023/06/21 01:30:33;;;;;;;13.43;7.05;;;25.70;63.00;;;;;;5075703;27;20516;-86
2023/06/21 01:33:00;;;;;;;27.70;7.93;;;25.70;63.20;;;;;;5058398;28;20254;-86
2023/06/21 01:35:28;;;;;;;29.97;7.20;;;25.70;62.70;;;;;;5063995;27;20193;-86
2023/06/21 01:37:58;;;;;;;49.17;7.87;;;25.70;62.20;;;;;;5067942;28;20455;-85
2023/06/21 01:40:25;;;;;;;58.47;9.50;;;25.70;62.60;;;;;;5074547;27;20470;-86
2023/06/21 01:42:52;;;;;;;17.60;7.23;;;25.70;63.20;;;;;;5070379;28;20438;-86
2023/06/21 01:45:24;;;;;;;28.20;8.70;;;25.70;63.00;;;;;;5098499;27;20454;-87
2023/06/21 01:47:54;;;;;;;121.37;10.13;;;25.50;62.80;;;;;;5085925;28;20466;-86
2023/06/21 01:50:22;;;;;;;84.75;10.80;;;25.00;64.60;;;;;;5065876;27;20561;-86
2023/06/21 01:52:51;;;;;;;28.13;8.63;;;24.80;65.60;;;;;;5085747;28;20616;-86
2023/06/21 01:55:20;;;;;;;16.23;6.80;;;24.60;66.70;;;;;;5101186;27;20963;-87
2023/06/21 01:57:48;;;;;;;15.60;8.80;;;24.80;66.20;;;;;;5111830;27;20435;-86
2023/06/21 02:00:16;;;;;;;22.20;7.97;;;25.00;65.90;;;;;;5081155;27;20971;-90
2023/06/21 02:02:50;;;;;;;29.33;7.40;;;25.20;65.10;;;;;;5069473;28;20857;-86
2023/06/21 02:05:20;;;;;;;64.63;9.17;;;25.30;64.40;;;;;;5064552;27;20857;-86
2023/06/21 02:07:49;;;;;;;36.05;9.77;;;25.40;64.20;;;;;;5085408;28;20493;-86
2023/06/21 02:10:18;;;;;;;27.48;8.35;;;25.40;64.60;;;;;;5100951;27;20585;-90
2023/06/21 02:12:48;;;;;;;40.28;7.85;;;25.40;64.50;;;;;;5062815;28;20197;-87
2023/06/21 02:15:16;;;;;;;17.07;7.23;;;25.40;64.40;;;;;;5112365;27;20293;-86
2023/06/21 02:17:49;;;;;;;16.13;7.63;;;25.50;64.40;;;;;;5064048;28;20443;-86
2023/06/21 02:20:17;;;;;;;28.50;7.40;;;25.50;64.70;;;;;;5100515;27;20849;-86
2023/06/21 02:22:46;;;;;;;21.83;8.13;;;25.60;64.60;;;;;;5068865;28;20453;-88
2023/06/21 02:25:14;;;;;;;56.50;8.90;;;25.60;64.30;;;;;;5121758;27;20203;-89
2023/06/21 02:27:41;;;;;;;31.93;8.03;;;25.60;64.20;;;;;;5072635;27;21037;-86
2023/06/21 02:30:09;;;;;;;26.40;7.80;;;25.40;64.20;;;;;;5086121;28;20491;-88
2023/06/21 02:32:38;;;;;;;21.87;7.53;;;25.30;64.20;;;;;;5065437;27;20444;-86
2023/06/21 02:35:06;;;;;;;11.80;6.73;;;25.00;64.90;;;;;;5086028;28;20472;-87
2023/06/21 02:37:33;;;;;;;10.33;7.10;;;25.00;65.10;;;;;;5085268;28;20485;-86
2023/06/21 02:40:09;;;;;;;13.50;5.60;;;25.10;64.90;;;;;;5110897;27;20512;-86
2023/06/21 02:42:37;;;;;;;9.70;6.10;;;25.20;64.30;;;;;;5086371;27;20503;-87
2023/06/21 02:45:06;;;;;;;7.40;5.73;;;25.30;63.50;;;;;;5069668;28;20460;-86
2023/06/21 02:47:33;;;;;;;10.27;6.20;;;25.30;63.50;;;;;;5085982;27;20453;-86
2023/06/21 02:50:00;;;;;;;6.80;5.50;;;25.30;63.60;;;;;;5095841;28;20459;-87
2023/06/21 02:52:27;;;;;;;92.20;8.30;;;25.30;63.30;;;;;;5083955;28;20440;-87
2023/06/21 02:54:54;;;;;;;37.33;8.00;;;25.10;63.50;;;;;;5064298;28;21031;-87
2023/06/21 02:57:23;;;;;;;16.40;7.70;;;25.00;64.50;;;;;;5060977;27;20825;-87
2023/06/21 02:59:51;;;;;;;8.53;6.77;;;25.00;64.60;;;;;;5078231;28;20460;-86
2023/06/21 03:02:18;;;;;;;11.47;5.47;;;25.10;64.80;;;;;;5064972;28;20534;-86
2023/06/21 03:04:45;;;;;;;7.60;4.90;;;25.20;64.20;;;;;;5075670;28;20568;-87
2023/06/21 03:07:12;;;;;;;7.23;6.40;;;25.20;64.50;;;;;;5073672;28;20533;-90
2023/06/21 03:09:39;;;;;;;35.08;7.72;;;25.20;63.60;;;;;;5051686;28;21059;-87
2023/06/21 03:12:08;;;;;;;11.53;7.83;;;24.70;65.00;;;;;;5071109;28;20216;-85
2023/06/21 03:14:38;;;;;;;8.93;6.27;;;24.80;65.30;;;;;;5116418;27;20454;-86
2023/06/21 03:17:09;;;;;;;17.90;7.53;;;24.90;65.20;;;;;;5071933;28;20490;-87
2023/06/21 03:19:36;;;;;;;9.30;7.20;;;25.00;64.50;;;;;;5077750;28;20469;-87
2023/06/21 03:22:05;;;;;;;16.57;8.03;;;25.10;64.20;;;;;;5055185;28;20440;-86
2023/06/21 03:24:32;;;;;;;13.45;7.22;;;25.10;64.10;;;;;;5048466;28;20541;-86
2023/06/21 03:27:02;;;;;;;14.82;7.57;;;25.20;64.70;;;;;;5045870;28;21060;-88
2023/06/21 03:29:29;;;;;;;38.27;8.73;;;25.20;63.60;;;;;;5066288;28;20221;-86
2023/06/21 03:31:58;;;;;;;177.03;12.23;;;24.60;66.30;;;;;;5102141;27;20958;-87
2023/06/21 03:34:25;;;;;;;9.70;6.70;;;24.30;66.80;;;;;;5071209;28;20452;-86
2023/06/21 03:36:54;;;;;;;11.77;7.80;;;24.30;67.00;;;;;;5077690;28;20189;-86
2023/06/21 03:39:24;;;;;;;12.53;6.23;;;24.50;66.70;;;;;;5058339;27;20452;-87
2023/06/21 03:41:51;;;;;;;12.93;7.20;;;24.70;67.10;;;;;;5065616;28;20452;-86
2023/06/21 03:44:18;;;;;;;28.30;7.70;;;24.80;65.90;;;;;;5096163;27;20444;-87
2023/06/21 03:46:45;;;;;;;9.17;7.60;;;24.80;65.60;;;;;;5090769;28;21910;-87
2023/06/21 03:49:14;;;;;;;63.07;9.27;;;24.80;65.50;;;;;;5055542;28;20451;-90
2023/06/21 03:51:41;;;;;;;20.43;7.70;;;24.90;65.40;;;;;;5080590;28;20440;-87
2023/06/21 03:54:08;;;;;;;8.50;6.73;;;24.70;65.60;;;;;;5085145;28;20443;-87
2023/06/21 03:56:35;;;;;;;10.13;7.67;;;24.70;65.60;;;;;;5085270;28;21023;-86
2023/06/21 03:59:02;;;;;;;10.00;7.50;;;24.80;65.90;;;;;;5054054;28;20458;-86
2023/06/21 04:01:29;;;;;;;16.20;8.57;;;24.90;65.90;;;;;;5086931;28;20463;-87
2023/06/21 04:03:56;;;;;;;12.43;7.37;;;25.00;66.10;;;;;;5096385;28;20876;-86
2023/06/21 04:06:25;;;;;;;9.60;8.10;;;25.00;65.40;;;;;;5053934;28;20517;-87
2023/06/21 04:08:52;;;;;;;12.40;7.30;;;25.10;65.10;;;;;;5067169;28;20476;-86
2023/06/21 04:11:19;;;;;;;9.38;7.28;;;25.20;65.10;;;;;;5091348;27;20456;-86
2023/06/21 04:13:46;;;;;;;8.20;6.33;;;25.30;64.90;;;;;;5099708;28;20280;-86
2023/06/21 04:16:13;;;;;;;10.00;6.80;;;25.30;64.50;;;;;;5089786;28;20452;-90
2023/06/21 04:18:41;;;;;;;6.77;6.07;;;25.40;63.90;;;;;;5051547;28;20432;-88
2023/06/21 04:21:08;;;;;;;7.37;6.43;;;25.50;63.90;;;;;;5077287;28;20468;-87
2023/06/21 04:23:36;;;;;;;9.80;6.27;;;25.50;63.60;;;;;;5052272;28;20455;-87
2023/06/21 04:26:06;;;;;;;11.37;7.50;;;25.60;63.60;;;;;;5053121;28;20528;-89
2023/06/21 04:28:33;;;;;;;11.77;8.17;;;25.60;63.70;;;;;;5049264;28;20463;-90
2023/06/21 04:31:00;;;;;;;8.50;7.60;;;25.40;63.30;;;;;;5051720;28;20456;-89
2023/06/21 04:33:28;;;;;;;9.77;7.83;;;25.50;63.70;;;;;;5087005;28;20449;-89
2023/06/21 04:35:57;;;;;;;8.97;7.20;;;25.50;63.60;;;;;;5100144;27;20456;-88
2023/06/21 04:38:24;;;;;;;7.47;6.43;;;25.50;63.60;;;;;;5097084;27;20495;-90
2023/06/21 04:40:53;;;;;;;6.60;5.90;;;25.50;63.20;;;;;;5092986;28;20520;-86
2023/06/21 04:43:21;;;;;;;10.40;7.20;;;25.50;63.60;;;;;;5066526;28;20535;-90
2023/06/21 04:45:48;;;;;;;9.50;7.77;;;25.50;64.00;;;;;;5064195;28;20463;-90
2023/06/21 04:48:15;;;;;;;10.93;7.97;;;25.60;63.80;;;;;;5054447;28;20487;-89
2023/06/21 04:50:45;;;;;;;8.67;7.63;;;25.60;63.60;;;;;;5071042;28;20478;-90
2023/06/21 04:53:12;;;;;;;12.43;9.23;;;25.50;63.50;;;;;;5070356;28;20905;-90
2023/06/21 04:55:42;;;;;;;10.40;7.47;;;25.40;64.10;;;;;;5079490;28;20456;-89
2023/06/21 04:58:12;;;;;;;13.13;8.17;;;25.50;64.30;;;;;;5079916;28;20439;-87
2023/06/21 05:00:39;;;;;;;10.70;9.27;;;25.50;64.70;;;;;;5043910;28;20527;-90
2023/06/21 05:03:06;;;;;;;13.93;9.27;;;25.60;64.70;;;;;;5046324;28;21319;-88
2023/06/21 05:05:33;;;;;;;13.00;9.13;;;25.70;64.60;;;;;;5070677;28;20446;-88
2023/06/21 05:08:00;;;;;;;9.73;8.67;;;25.70;64.60;;;;;;5078682;28;21006;-87
2023/06/21 05:10:28;;;;;;;13.30;8.90;;;25.70;64.20;;;;;;5085080;28;20471;-87
2023/06/21 05:12:55;;;;;;;15.10;8.67;;;25.60;63.80;;;;;;5063522;28;21026;-86
2023/06/21 05:15:23;;;;;;;14.20;8.60;;;25.40;64.80;;;;;;5069765;28;20451;-89
2023/06/21 05:17:50;;;;;;;15.20;9.80;;;25.40;65.00;;;;;;5081334;28;20440;-89
2023/06/21 05:20:20;;;;;;;13.83;9.53;;;25.30;65.70;;;;;;5064563;28;20473;-86
2023/06/21 05:22:47;;;;;;;12.85;9.20;;;25.30;65.80;;;;;;5083573;28;20522;-87
2023/06/21 05:25:14;;;;;;;12.10;10.00;;;25.40;65.80;;;;;;5075213;28;20734;-88
2023/06/21 05:27:41;;;;;;;11.85;9.10;;;25.50;65.60;;;;;;5066045;28;20532;-87
2023/06/21 05:30:09;;;;;;;15.40;10.73;;;25.70;65.30;;;;;;5079836;28;20223;-87
2023/06/21 05:32:37;;;;;;;14.57;10.40;;;25.90;65.40;;;;;;5078011;28;20451;-88
2023/06/21 05:35:05;;;;;;;12.33;9.63;;;25.90;65.10;;;;;;5053214;28;20452;-88
2023/06/21 05:37:32;;;;;;;17.60;10.57;;;25.80;64.00;;;;;;5072999;28;20531;-88
2023/06/21 05:40:00;;;;;;;14.60;9.63;;;25.70;64.80;;;;;;5085785;28;20962;-88
2023/06/21 05:42:27;;;;;;;14.60;10.57;;;25.70;65.00;;;;;;5070166;28;20452;-87
2023/06/21 05:44:54;;;;;;;16.70;11.00;;;25.80;64.90;;;;;;5097939;28;20451;-88
2023/06/21 05:47:21;;;;;;;18.93;10.90;;;25.90;65.00;;;;;;5082646;28;21014;-88
2023/06/21 05:49:50;;;;;;;13.10;11.27;;;26.00;64.90;;;;;;5091162;28;20467;-87
2023/06/21 05:52:17;;;;;;;13.70;11.60;;;26.00;64.60;;;;;;5065175;28;20451;-87
2023/06/21 05:54:44;;;;;;;20.30;11.40;;;26.10;64.40;;;;;;5082134;28;20443;-86
2023/06/21 05:57:12;;;;;;;16.63;10.70;;;26.00;64.90;;;;;;5091316;28;20439;-88
2023/06/21 05:59:41;;;;;;;12.93;10.40;;;25.60;65.40;;;;;;5049426;28;20475;-87
2023/06/21 06:02:08;;;;;;;19.30;12.13;;;25.10;68.30;;;;;;5108730;27;20487;-87
2023/06/21 06:04:36;;;;;;;15.73;12.85;;;24.80;70.60;;;;;;5079334;28;20439;-87
2023/06/21 06:07:05;;;;;;;18.80;11.50;;;24.90;70.30;;;;;;5063176;28;20281;-88
2023/06/21 06:09:32;;;;;;;17.50;12.07;;;25.00;70.00;;;;;;5052180;28;20487;-87
2023/06/21 06:11:59;;;;;;;19.30;12.07;;;25.00;69.50;;;;;;5070430;28;20521;-88
2023/06/21 06:14:26;;;;;;;14.40;12.37;;;24.90;69.70;;;;;;5066104;28;20451;-89
2023/06/21 06:16:53;;;;;;;14.17;11.73;;;25.20;69.60;;;;;;5052632;28;20447;-88
2023/06/21 06:19:20;;;;;;;17.20;12.07;;;25.50;69.10;;;;;;5086266;28;20455;-88
2023/06/21 06:21:47;;;;;;;25.17;13.00;;;25.80;68.40;;;;;;5089805;27;20854;-86
2023/06/21 06:24:15;;;;;;;21.63;13.73;;;25.90;68.20;;;;;;5057500;28;21111;-88
2023/06/21 06:26:42;;;;;;;14.80;13.13;;;26.10;67.80;;;;;;5069357;28;20455;-88
2023/06/21 06:29:09;;;;;;;14.70;12.73;;;26.20;67.60;;;;;;5064606;28;20459;-88
2023/06/21 06:31:36;;;;;;;19.55;13.07;;;26.20;67.20;;;;;;5064059;28;20463;-87
2023/06/21 06:34:03;;;;;;;18.37;12.37;;;26.30;66.90;;;;;;5044048;28;21041;-89
2023/06/21 06:36:30;;;;;;;15.63;12.23;;;26.20;67.20;;;;;;5048460;27;20987;-87
2023/06/21 06:38:57;;;;;;;19.27;14.47;;;26.20;67.30;;;;;;5059071;28;20463;-88
2023/06/21 06:41:25;;;;;;;18.60;13.60;;;26.30;67.10;;;;;;5061298;28;20980;-88
2023/06/21 06:43:53;;;;;;;17.20;13.53;;;26.40;67.20;;;;;;5055417;28;20455;-88
2023/06/21 06:46:20;;;;;;;20.30;14.80;;;26.60;66.90;;;;;;5061767;28;20439;-87
2023/06/21 06:48:47;;;;;;;19.27;13.10;;;26.70;66.30;;;;;;5068330;28;20213;-89
2023/06/21 06:51:14;;;;;;;15.60;13.40;;;26.80;66.30;;;;;;5058884;28;20697;-87
2023/06/21 06:53:42;;;;;;;25.50;14.27;;;26.70;66.20;;;;;;5080247;28;20459;-88
2023/06/21 06:56:09;;;;;;;16.50;12.50;;;26.50;66.80;;;;;;5054306;28;20444;-87
2023/06/21 06:58:37;;;;;;;16.47;12.97;;;26.50;67.20;;;;;;5078264;28;20456;-88
2023/06/21 07:01:05;;;;;;;16.20;12.88;;;26.60;66.80;;;;;;5078447;28;20461;-87
2023/06/21 07:03:32;;;;;;;17.37;12.77;;;26.70;66.00;;;;;;5064644;27;20454;-88
2023/06/21 07:05:59;;;;;;;14.83;13.33;;;26.70;66.30;;;;;;5068493;28;20452;-87
2023/06/21 07:08:26;;;;;;;16.92;12.43;;;26.70;66.50;;;;;;5041460;28;20463;-87
2023/06/21 07:10:54;;;;;;;19.60;13.87;;;26.70;66.40;;;;;;5043897;28;20463;-86
2023/06/21 07:13:21;;;;;;;15.90;13.93;;;26.70;66.90;;;;;;5089894;28;20505;-86
2023/06/21 07:15:50;;;;;;;18.87;13.80;;;26.90;66.80;;;;;;5094474;27;20439;-89
2023/06/21 07:18:17;;;;;;;17.80;13.47;;;26.90;66.80;;;;;;5059035;28;20443;-87
2023/06/21 07:20:44;;;;;;;30.73;14.50;;;27.00;67.10;;;;;;5065181;28;20451;-87
2023/06/21 07:23:11;;;;;;;20.40;14.43;;;27.00;67.10;;;;;;5061527;28;20447;-88
2023/06/21 07:25:39;;;;;;;21.77;15.30;;;27.00;67.30;;;;;;5063176;28;21173;-88
2023/06/21 07:28:06;;;;;;;19.17;13.83;;;27.10;66.80;;;;;;5069887;28;20472;-86
2023/06/21 07:30:32;;;;;;;19.53;13.40;;;27.20;66.80;;;;;;5067887;28;20479;-87
2023/06/21 07:33:01;;;;;;;16.37;14.30;;;27.30;66.60;;;;;;5052377;28;20964;-88
2023/06/21 07:35:28;;;;;;;14.33;12.77;;;27.30;66.00;;;;;;5060218;27;20450;-87
2023/06/21 07:37:54;;;;;;;19.07;13.00;;;27.40;65.80;;;;;;5047384;28;20856;-87
2023/06/21 07:40:21;;;;;;;19.33;13.35;;;27.40;66.20;;;;;;5063320;28;20458;-87
2023/06/21 07:42:49;;;;;;;18.60;13.05;;;27.50;65.30;;;;;;5059492;28;20942;-86
2023/06/21 07:45:16;;;;;;;17.43;12.40;;;27.70;65.00;;;;;;5058101;28;20202;-87
2023/06/21 07:47:43;;;;;;;16.63;12.23;;;27.80;64.50;;;;;;5061990;28;21412;-89
2023/06/21 07:50:11;;;;;;;12.03;10.73;;;27.80;63.20;;;;;;5064516;28;20825;-88
2023/06/21 07:52:38;;;;;;;14.33;10.90;;;27.90;62.50;;;;;;5042763;28;20606;-88
2023/06/21 07:55:10;;;;;;;12.88;11.57;;;27.80;60.90;;;;;;5060611;28;21153;-88
2023/06/21 07:57:38;;;;;;;13.00;9.67;;;27.80;62.80;;;;;;5046673;28;20190;-89
2023/06/21 08:00:11;;;;;;;10.45;9.40;;;27.80;62.20;;;;;;5052350;28;20489;-87
2023/06/21 08:02:44;;;;;;;11.20;9.43;;;27.80;61.80;;;;;;5108489;27;20291;-88
2023/06/21 08:05:13;;;;;;;13.35;10.45;;;27.80;61.70;;;;;;5053330;28;20227;-89
2023/06/21 08:07:43;;;;;;;13.65;9.32;;;28.00;62.50;;;;;;5049652;27;20208;-88
2023/06/21 08:10:11;;;;;;;13.63;10.55;;;27.90;59.60;;;;;;5076925;28;20230;-88
2023/06/21 08:12:38;;;;;;;10.60;9.50;;;27.90;61.00;;;;;;5049721;28;20209;-86
2023/06/21 08:15:06;;;;;;;11.13;9.43;;;28.10;60.80;;;;;;5091193;27;20197;-87
2023/06/21 08:17:33;;;;;;;11.48;9.73;;;28.00;59.40;;;;;;5059720;28;20451;-86
2023/06/21 08:20:00;;;;;;;12.67;10.70;;;28.10;59.30;;;;;;5060901;28;20221;-87
2023/06/21 08:22:28;;;;;;;14.53;10.30;;;28.00;59.20;;;;;;5060499;28;21038;-87
2023/06/21 08:24:56;;;;;;;14.77;11.13;;;28.00;59.90;;;;;;5070610;28;20499;-87
2023/06/21 08:27:23;;;;;;;15.20;10.87;;;28.00;60.00;;;;;;5051145;28;21221;-87
2023/06/21 08:29:50;;;;;;;15.00;10.70;;;28.10;59.30;;;;;;5058102;28;20475;-86
2023/06/21 08:32:19;;;;;;;15.00;10.85;;;28.00;60.00;;;;;;5050705;28;20444;-87
2023/06/21 08:34:46;;;;;;;13.63;10.80;;;28.10;58.90;;;;;;5079304;28;20202;-89
2023/06/21 08:37:13;;;;;;;15.30;11.13;;;28.20;59.80;;;;;;5070774;28;20527;-86
2023/06/21 08:39:42;;;;;;;14.43;10.63;;;28.20;60.70;;;;;;5067833;28;20581;-87
2023/06/21 08:42:09;;;;;;;11.20;10.00;;;28.20;60.30;;;;;;5059409;28;20201;-87
2023/06/21 08:44:36;;;;;;;13.30;9.80;;;28.20;58.70;;;;;;5098694;27;20451;-87
2023/06/21 08:47:07;;;;;;;13.00;9.43;;;28.30;60.00;;;;;;5090490;28;20209;-88
2023/06/21 08:49:40;;;;;;;10.40;9.30;;;28.40;58.00;;;;;;5048972;28;20472;-88
2023/06/21 08:52:12;;;;;;;12.13;9.30;;;28.70;57.40;;;;;;5049428;28;20462;-88
2023/06/21 08:54:43;;;;;;;11.00;9.90;;;28.70;56.50;;;;;;5066331;28;20450;-87
2023/06/21 08:57:18;;;;;;;11.40;9.40;;;28.80;56.40;;;;;;5069140;28;20467;-87
2023/06/21 08:59:50;;;;;;;14.47;10.10;;;28.80;56.10;;;;;;5063386;28;20995;-86
2023/06/21 09:02:27;;;;;;;12.30;10.90;;;29.10;56.90;;;;;;5069611;28;20443;-88
2023/06/21 09:04:58;;;;;;;15.53;9.80;;;29.30;56.00;;;;;;5057432;28;20438;-87
2023/06/21 09:07:26;;;;;;;11.93;10.73;;;29.40;54.80;;;;;;5100607;28;20486;-86
2023/06/21 09:09:57;;;;;;;13.50;10.03;;;29.40;54.10;;;;;;5064316;28;20494;-88
2023/06/21 09:12:24;;;;;;;12.03;9.33;;;29.30;55.20;;;;;;5077937;28;20444;-88
2023/06/21 09:14:52;;;;;;;11.67;9.57;;;29.20;54.70;;;;;;5063063;28;20455;-88
2023/06/21 09:17:20;;;;;;;11.33;9.20;;;29.20;55.70;;;;;;5051029;28;20452;-89
2023/06/21 09:19:47;;;;;;;11.20;10.00;;;29.00;55.90;;;;;;5071050;28;20463;-88
2023/06/21 09:22:14;;;;;;;10.57;9.47;;;28.90;56.60;;;;;;5066157;28;20447;-88
2023/06/21 09:24:41;;;;;;;10.80;9.20;;;28.80;56.40;;;;;;5074188;28;20465;-89
2023/06/21 09:27:10;;;;;;;14.07;10.47;;;28.60;55.00;;;;;;5051304;28;20980;-88
2023/06/21 09:29:37;;;;;;;11.47;10.37;;;28.70;57.20;;;;;;5061210;28;20470;-88
2023/06/21 09:32:04;;;;;;;13.10;9.97;;;28.80;56.80;;;;;;5092444;28;20448;-87
2023/06/21 09:34:31;;;;;;;10.90;9.80;;;29.00;56.50;;;;;;5054141;28;20567;-89
2023/06/21 09:36:59;;;;;;;13.60;10.30;;;29.30;55.10;;;;;;5090746;28;20509;-87
2023/06/21 09:39:27;;;;;;;12.13;9.77;;;29.10;55.20;;;;;;5047833;28;20970;-87
2023/06/21 09:41:55;;;;;;;10.95;9.70;;;29.00;55.30;;;;;;5084337;28;20443;-89
2023/06/21 09:44:24;;;;;;;12.15;9.80;;;29.20;56.30;;;;;;5094744;28;20202;-89
2023/06/21 09:46:57;;;;;;;12.65;9.57;;;29.60;55.70;;;;;;5067189;28;20716;-86
2023/06/21 09:49:27;;;;;;;11.50;10.30;;;29.70;55.70;;;;;;5081909;28;21632;-88
2023/06/21 09:51:54;;;;;;;13.60;11.67;;;29.90;53.60;;;;;;5084149;27;20435;-88
2023/06/21 09:54:21;;;;;;;10.80;9.37;;;29.80;52.40;;;;;;5082391;28;20439;-88
2023/06/21 09:56:48;;;;;;;11.10;9.70;;;29.80;53.20;;;;;;5050888;28;20463;-88
2023/06/21 09:59:15;;;;;;;11.27;10.07;;;30.10;53.80;;;;;;5084293;28;20863;-87
2023/06/21 10:01:47;;;;;;;13.17;11.10;;;30.30;54.00;;;;;;5069446;28;20450;-89
2023/06/21 10:04:16;;;;;;;14.20;10.73;;;30.30;51.70;;;;;;5081518;28;20814;-88
2023/06/21 10:06:50;;;;;;;14.23;9.73;;;30.50;53.70;;;;;;5083748;28;20974;-88
2023/06/21 10:09:17;;;;;;;11.40;10.20;;;30.40;52.30;;;;;;5065889;28;20980;-88
2023/06/21 10:11:45;;;;;;;15.10;10.20;;;30.50;53.20;;;;;;5056711;28;21171;-90
2023/06/21 10:14:19;;;;;;;11.63;10.50;;;30.50;52.30;;;;;;5082671;28;20813;-89
2023/06/21 10:16:50;;;;;;;11.63;10.10;;;30.40;51.90;;;;;;5065400;28;20532;-88
2023/06/21 10:19:20;;;;;;;11.00;9.90;;;30.60;52.20;;;;;;5067684;28;20438;-87
2023/06/21 10:21:50;;;;;;;13.10;11.57;;;30.60;51.50;;;;;;5081085;28;20204;-88
2023/06/21 10:24:18;;;;;;;13.30;9.80;;;30.70;53.00;;;;;;5052115;28;20447;-87
2023/06/21 10:26:45;;;;;;;10.68;9.57;;;30.60;52.30;;;;;;5078495;28;20467;-90
2023/06/21 10:29:13;;;;;;;11.90;10.33;;;30.60;50.70;;;;;;5076398;28;20856;-88
2023/06/21 10:31:44;;;;;;;10.27;8.93;;;30.60;51.30;;;;;;5062911;28;20482;-88
2023/06/21 10:34:20;;;;;;;11.10;9.98;;;30.60;51.50;;;;;;5110259;27;20481;-87
2023/06/21 10:36:50;;;;;;;10.30;9.27;;;30.70;52.60;;;;;;5079451;28;20662;-88
2023/06/21 10:39:20;;;;;;;12.57;9.33;;;30.60;51.90;;;;;;5055504;28;20454;-88
2023/06/21 10:41:47;;;;;;;10.60;9.20;;;30.40;50.90;;;;;;5080614;28;20451;-90
2023/06/21 10:44:17;;;;;;;10.27;9.27;;;30.10;52.10;;;;;;5067325;28;20447;-89
2023/06/21 10:46:45;;;;;;;9.73;8.73;;;30.20;53.00;;;;;;5054008;28;20455;-88
2023/06/21 10:49:15;;;;;;;9.80;8.90;;;30.20;51.10;;;;;;5075891;28;20868;-87
2023/06/21 10:51:43;;;;;;;9.20;8.30;;;30.30;52.70;;;;;;5103249;28;20454;-88
2023/06/21 10:54:10;;;;;;;10.20;8.93;;;30.30;51.90;;;;;;5084614;28;20443;-88
2023/06/21 10:56:38;;;;;;;9.00;8.10;;;30.20;51.20;;;;;;5070018;28;20461;-88
2023/06/21 10:59:05;;;;;;;9.73;8.83;;;30.20;51.80;;;;;;5071089;28;20452;-88
2023/06/21 11:01:33;;;;;;;10.90;8.53;;;30.30;52.10;;;;;;5046088;28;20554;-89
2023/06/21 11:04:00;;;;;;;10.53;9.50;;;30.30;51.60;;;;;;5078889;28;20448;-89
2023/06/21 11:06:29;;;;;;;10.20;8.70;;;30.30;50.70;;;;;;5062649;28;20462;-88
2023/06/21 11:08:57;;;;;;;9.90;8.90;;;30.30;50.90;;;;;;5077177;28;20474;-88
2023/06/21 11:11:29;;;;;;;10.57;8.63;;;30.20;51.40;;;;;;5074999;28;20519;-88
2023/06/21 11:13:56;;;;;;;9.07;8.13;;;30.10;51.30;;;;;;5087600;28;20486;-88
2023/06/21 11:16:26;;;;;;;10.33;8.43;;;30.10;51.10;;;;;;5052825;28;20199;-88
2023/06/21 11:18:56;;;;;;;9.57;8.60;;;30.20;51.90;;;;;;5078200;28;20941;-90
2023/06/21 11:21:45;;;;;;;12.15;8.43;;;30.30;52.20;;;;;;5094739;28;20464;-89
2023/06/21 11:24:16;;;;;;;9.67;8.57;;;30.30;52.10;;;;;;5063948;28;20201;-87
2023/06/21 11:27:00;;;;;;;8.23;7.53;;;30.30;51.30;;;;;;5048758;28;21227;-87
2023/06/21 11:29:28;;;;;;;12.97;8.43;;;30.20;52.20;;;;;;5071020;27;20473;-88
2023/06/21 11:32:12;;;;;;;9.83;8.43;;;30.20;51.90;;;;;;5108923;27;20942;-89
2023/06/21 11:34:53;;;;;;;9.15;8.25;;;30.20;52.60;;;;;;5060562;28;20517;-88
2023/06/21 11:37:35;;;;;;;8.93;8.10;;;30.30;53.00;;;;;;5058158;28;20456;-88
2023/06/21 11:40:05;;;;;;;9.30;8.40;;;30.30;51.30;;;;;;5063544;28;20463;-87
2023/06/21 11:42:37;;;;;;;9.00;8.20;;;30.00;51.70;;;;;;5051119;28;20470;-88
2023/06/21 11:45:20;;;;;;;9.60;8.60;;;29.90;52.50;;;;;;5079285;28;20448;-87
2023/06/21 11:48:15;;;;;;;8.55;6.95;;;29.90;53.30;;;;;;5076443;28;20538;-89
2023/06/21 11:50:44;;;;;;;11.63;8.77;;;29.90;53.30;;;;;;4992324;28;20317;-88
2023/06/21 11:53:23;;;;;;;9.33;8.40;;;30.00;53.20;;;;;;5059486;28;20459;-88
2023/06/21 11:55:52;;;;;;;9.33;8.13;;;30.00;53.40;;;;;;5066974;28;20442;-88
2023/06/21 11:58:19;;;;;;;10.13;8.83;;;30.10;52.70;;;;;;5092681;28;20451;-87
2023/06/21 12:00:46;;;;;;;10.80;9.80;;;30.20;53.00;;;;;;5051599;27;20494;-87
2023/06/21 12:03:14;;;;;;;10.20;9.10;;;30.30;52.10;;;;;;5077430;28;20449;-88
2023/06/21 12:05:49;;;;;;;11.53;9.10;;;30.30;51.70;;;;;;5070218;28;20455;-89
2023/06/21 12:08:18;;;;;;;10.00;8.77;;;30.30;50.90;;;;;;5050169;28;20455;-87
2023/06/21 12:10:45;;;;;;;9.90;9.00;;;30.30;51.30;;;;;;5042891;28;20498;-88
2023/06/21 12:13:13;;;;;;;9.00;8.03;;;30.40;52.00;;;;;;5059210;28;20554;-87
2023/06/21 12:15:46;;;;;;;9.70;8.27;;;30.40;51.60;;;;;;5047453;28;20459;-88
2023/06/21 12:18:14;;;;;;;9.00;8.10;;;30.40;51.40;;;;;;5039183;28;20455;-89
2023/06/21 12:20:41;;;;;;;9.60;8.60;;;30.60;50.40;;;;;;5088331;28;20472;-87
2023/06/21 12:23:09;;;;;;;11.40;8.23;;;30.70;50.10;;;;;;5050593;28;20443;-88
2023/06/21 12:25:48;;;;;;;10.67;8.20;;;30.80;50.50;;;;;;5078221;28;20463;-88
2023/06/21 12:28:17;;;;;;;9.40;8.50;;;30.90;50.60;;;;;;5080038;28;20452;-88
2023/06/21 12:30:53;;;;;;;9.77;8.53;;;30.90;49.80;;;;;;5067532;28;20536;-88
2023/06/21 12:33:23;;;;;;;10.60;9.60;;;31.00;49.90;;;;;;5063093;28;20562;-88
2023/06/21 12:35:50;;;;;;;13.40;8.90;;;31.10;49.90;;;;;;5049022;28;20456;-88
2023/06/21 12:38:18;;;;;;;10.60;9.50;;;31.10;48.60;;;;;;5095322;28;20454;-87
2023/06/21 12:40:54;;;;;;;10.97;9.83;;;31.10;48.60;;;;;;5080048;27;20461;-88
2023/06/21 12:43:33;;;;;;;10.53;9.53;;;31.00;48.10;;;;;;5088687;28;20454;-88